Weather at Nowy Targ Airfield

Public forecast

Using degrees Celsius for public forecast. Weather courtesy of forecast.io.

Closest aviation weather report (METAR) to Nowy Targ Airfield

Closest report is Poprad-Tatry Airport, 24.5 nm (45.4 km) SSE.

2024/05/21 06:00 (retrieved 19 minutes ago)

LZTT 210600Z 01003KT 340V060 9999 4000SE PRFG FEW002 12/10 Q1015 NOSIG

Closest aviation forecast (TAF) to Nowy Targ Airfield

Closest forecast is Poprad-Tatry Airport, 24.5 nm (45.4 km) SSE.

2024/05/21 06:16 (retrieved 3 minutes ago)

TAF LZTT 210515Z 2106/2206 24004KT 9999 FEW040 TEMPO 2106/2107 2000 BCFG SCT002 BECMG 2107/2109 10008KT TEMPO 2112/2206 TSRA SCT027CB BKN035 BECMG 2116/2118 36006KT